createdAt,value
2023-05-20T00:02:16.398Z,1.63
2023-05-20T00:04:43.858Z,1.93
2023-05-20T00:07:10.846Z,1.87
2023-05-20T00:09:39.886Z,1.80
2023-05-20T00:12:06.960Z,1.70
2023-05-20T00:14:33.945Z,2.03
2023-05-20T00:17:00.817Z,1.87
2023-05-20T00:19:27.892Z,1.63
2023-05-20T00:21:57.504Z,1.90
2023-05-20T00:24:25.652Z,1.90
2023-05-20T00:26:52.689Z,2.00
2023-05-20T00:29:22.689Z,1.50
2023-05-20T00:31:49.838Z,2.00
2023-05-20T00:34:16.710Z,1.80
2023-05-20T00:36:43.702Z,2.03
2023-05-20T00:39:10.567Z,2.73
2023-05-20T00:41:37.506Z,5.17
2023-05-20T00:44:04.552Z,3.17
2023-05-20T00:46:31.666Z,1.50
2023-05-20T00:48:58.686Z,1.73
2023-05-20T00:51:25.764Z,2.13
2023-05-20T00:53:52.895Z,2.00
2023-05-20T00:56:22.044Z,2.10
2023-05-20T00:58:50.081Z,1.70
2023-05-20T01:01:17.134Z,2.87
2023-05-20T01:03:44.063Z,2.07
2023-05-20T01:06:11.036Z,1.83
2023-05-20T01:08:38.523Z,2.20
2023-05-20T01:11:16.600Z,2.50
2023-05-20T01:13:53.545Z,1.77
2023-05-20T01:16:23.323Z,2.47
2023-05-20T01:18:57.292Z,2.20
2023-05-20T01:21:24.506Z,2.53
2023-05-20T01:23:51.747Z,2.40
2023-05-20T01:26:19.505Z,1.80
2023-05-20T01:28:46.455Z,2.17
2023-05-20T01:31:24.873Z,2.20
2023-05-20T01:33:59.844Z,2.70
2023-05-20T01:36:28.534Z,1.90
2023-05-20T01:38:56.330Z,2.10
2023-05-20T01:41:25.663Z,2.40
2023-05-20T01:43:52.639Z,2.13
2023-05-20T01:46:19.672Z,2.37
2023-05-20T01:48:46.619Z,2.10
2023-05-20T01:51:13.603Z,2.17
2023-05-20T01:53:40.686Z,2.50
2023-05-20T01:56:07.649Z,2.40
2023-05-20T01:58:34.558Z,1.97
2023-05-20T02:01:02.021Z,2.43
2023-05-20T02:03:29.040Z,2.30
2023-05-20T02:05:56.157Z,2.10
2023-05-20T02:08:23.163Z,2.53
2023-05-20T02:10:50.098Z,2.60
2023-05-20T02:13:16.972Z,1.93
2023-05-20T02:15:44.828Z,2.50
2023-05-20T02:18:12.717Z,2.70
2023-05-20T02:20:41.058Z,7.37
2023-05-20T02:23:08.681Z,2.70
2023-05-20T02:25:36.439Z,2.20
2023-05-20T02:28:05.817Z,2.40
2023-05-20T02:30:32.783Z,1.83
2023-05-20T02:33:00.039Z,1.90
2023-05-20T02:35:27.182Z,2.70
2023-05-20T02:37:54.063Z,2.50
2023-05-20T02:40:21.245Z,2.40
2023-05-20T02:42:48.211Z,2.63
2023-05-20T02:45:15.250Z,2.57
2023-05-20T02:47:42.295Z,3.13
2023-05-20T02:50:09.512Z,3.03
2023-05-20T02:52:36.560Z,2.50
2023-05-20T02:55:03.795Z,2.30
2023-05-20T02:57:31.359Z,2.47
2023-05-20T02:59:58.293Z,2.60
2023-05-20T03:02:25.344Z,3.10
2023-05-20T03:04:54.737Z,2.50
2023-05-20T03:07:22.446Z,2.60
2023-05-20T03:09:49.568Z,4.47
2023-05-20T03:12:16.522Z,2.17
2023-05-20T03:14:43.512Z,3.87
2023-05-20T03:17:11.605Z,2.13
2023-05-20T03:19:38.622Z,2.33
2023-05-20T03:22:06.003Z,3.83
2023-05-20T03:24:32.994Z,2.70
2023-05-20T03:26:59.904Z,2.97
2023-05-20T03:29:27.051Z,3.13
2023-05-20T03:31:54.046Z,2.53
2023-05-20T03:34:21.237Z,2.33
2023-05-20T03:36:48.283Z,5.97
2023-05-20T03:39:15.286Z,2.80
2023-05-20T03:41:42.225Z,2.67
2023-05-20T03:44:09.127Z,2.53
2023-05-20T03:46:36.121Z,2.60
2023-05-20T03:49:04.062Z,2.73
2023-05-20T03:51:31.300Z,2.80
2023-05-20T03:53:58.183Z,3.20
2023-05-20T03:56:25.098Z,3.10
2023-05-20T03:58:52.391Z,3.57
2023-05-20T04:01:19.728Z,2.50
2023-05-20T04:03:46.759Z,2.90
2023-05-20T04:06:14.351Z,2.27
2023-05-20T04:08:41.207Z,3.07
2023-05-20T04:11:08.423Z,2.90
2023-05-20T04:13:35.357Z,3.00
2023-05-20T04:16:05.499Z,2.90
2023-05-20T04:18:32.428Z,2.73
2023-05-20T04:21:01.677Z,2.40
2023-05-20T04:23:28.637Z,2.57
2023-05-20T04:25:55.514Z,2.63
2023-05-20T04:28:24.186Z,3.07
2023-05-20T04:31:04.422Z,3.33
2023-05-20T04:33:32.911Z,3.20
2023-05-20T04:36:01.040Z,3.07
2023-05-20T04:38:30.069Z,1.87
2023-05-20T04:41:00.335Z,2.43
2023-05-20T04:43:31.059Z,3.33
2023-05-20T04:45:58.616Z,3.13
2023-05-20T04:48:28.056Z,2.67
2023-05-20T04:50:54.874Z,2.47
2023-05-20T04:53:21.979Z,2.60
2023-05-20T04:55:49.699Z,3.07
2023-05-20T04:58:17.417Z,3.00
2023-05-20T05:00:45.573Z,5.40
2023-05-20T05:03:15.392Z,2.93
2023-05-20T05:05:43.175Z,3.17
2023-05-20T05:08:13.561Z,2.43
2023-05-20T05:10:40.864Z,2.60
2023-05-20T05:13:07.752Z,2.70
2023-05-20T05:15:34.870Z,5.50
2023-05-20T05:18:02.601Z,3.43
2023-05-20T05:20:29.586Z,3.20
2023-05-20T05:22:56.564Z,3.07
2023-05-20T05:25:23.512Z,2.40
2023-05-20T05:27:50.597Z,4.10
2023-05-20T05:30:17.916Z,2.77
2023-05-20T05:32:45.689Z,5.13
2023-05-20T05:35:12.792Z,3.17
2023-05-20T05:37:39.976Z,3.20
2023-05-20T05:40:08.226Z,3.20
2023-05-20T05:42:35.118Z,3.33
2023-05-20T05:45:02.005Z,2.87
2023-05-20T05:47:32.546Z,3.67
2023-05-20T05:50:00.055Z,2.70
2023-05-20T05:52:27.434Z,2.73
2023-05-20T05:54:55.462Z,3.03
2023-05-20T05:57:22.519Z,4.57
2023-05-20T05:59:49.410Z,3.83
2023-05-20T06:02:16.561Z,4.40
2023-05-20T06:04:43.612Z,3.90
2023-05-20T06:07:10.730Z,2.17
2023-05-20T06:09:38.806Z,4.00
2023-05-20T06:12:06.270Z,3.53
2023-05-20T06:14:33.327Z,3.60
2023-05-20T06:17:00.544Z,3.07
2023-05-20T06:19:27.803Z,3.33
2023-05-20T06:21:54.838Z,3.40
2023-05-20T06:24:24.221Z,2.60
2023-05-20T06:26:55.063Z,4.93
2023-05-20T06:29:22.507Z,3.83
2023-05-20T06:31:49.564Z,3.10
2023-05-20T06:34:20.676Z,1.93
2023-05-20T06:36:47.733Z,2.07
2023-05-20T06:39:14.743Z,3.23
2023-05-20T06:41:41.872Z,3.90
2023-05-20T06:44:08.861Z,3.50
2023-05-20T06:46:36.476Z,3.50
2023-05-20T06:49:03.668Z,2.87
2023-05-20T06:51:31.017Z,3.80
2023-05-20T06:53:58.429Z,3.70
2023-05-20T06:56:28.400Z,2.83
2023-05-20T06:58:58.744Z,3.07
2023-05-20T07:01:28.787Z,3.50
2023-05-20T07:04:01.165Z,2.30
2023-05-20T07:06:33.517Z,3.47
2023-05-20T07:09:01.120Z,3.70
2023-05-20T07:11:28.139Z,2.73
2023-05-20T07:13:55.212Z,3.20
2023-05-20T07:16:22.490Z,3.20
2023-05-20T07:18:52.640Z,3.40
2023-05-20T07:21:22.458Z,3.70
2023-05-20T07:23:53.870Z,2.90
2023-05-20T07:26:21.637Z,3.53
2023-05-20T07:28:48.657Z,3.57
2023-05-20T07:31:15.764Z,3.67
2023-05-20T07:33:42.713Z,2.83
2023-05-20T07:36:16.354Z,3.83
2023-05-20T07:38:53.089Z,4.00
2023-05-20T07:41:29.364Z,3.80
2023-05-20T07:43:58.524Z,4.47
2023-05-20T07:46:25.542Z,4.20
2023-05-20T07:49:06.326Z,3.43
2023-05-20T07:51:33.278Z,3.77
2023-05-20T07:54:00.409Z,3.67
2023-05-20T07:56:27.291Z,3.63
2023-05-20T07:58:59.654Z,5.60
2023-05-20T08:01:33.126Z,3.27
2023-05-20T08:04:00.372Z,3.50
2023-05-20T08:06:29.612Z,3.80
2023-05-20T08:08:59.358Z,3.73
2023-05-20T08:11:26.378Z,4.10
2023-05-20T08:13:56.183Z,4.03
2023-05-20T08:16:23.212Z,4.03
2023-05-20T08:18:50.803Z,3.73
2023-05-20T08:21:17.726Z,1.77
2023-05-20T08:23:44.770Z,4.33
2023-05-20T08:26:14.777Z,3.93
2023-05-20T08:28:41.832Z,1.53
2023-05-20T08:31:10.057Z,3.47
2023-05-20T08:33:37.123Z,3.60
2023-05-20T08:36:04.330Z,3.87
2023-05-20T08:38:31.301Z,4.20
2023-05-20T08:40:58.331Z,3.30
2023-05-20T08:43:30.292Z,3.83
2023-05-20T08:46:02.294Z,3.90
2023-05-20T08:48:30.860Z,3.60
2023-05-20T08:50:58.190Z,3.00
2023-05-20T08:53:28.282Z,3.83
2023-05-20T08:56:01.408Z,3.93
2023-05-20T08:58:32.121Z,4.17
2023-05-20T09:00:59.431Z,3.67
2023-05-20T09:03:26.926Z,4.17
2023-05-20T09:05:54.526Z,3.00
2023-05-20T09:08:31.027Z,4.50
2023-05-20T09:10:58.043Z,3.87
2023-05-20T09:13:28.920Z,4.17
2023-05-20T09:15:55.935Z,3.80
2023-05-20T09:18:22.847Z,3.40
2023-05-20T09:20:53.036Z,4.10
2023-05-20T09:23:24.934Z,4.10
2023-05-20T09:25:52.958Z,4.43
2023-05-20T09:28:24.142Z,3.20
2023-05-20T09:30:54.100Z,4.30
2023-05-20T09:33:24.356Z,3.53
2023-05-20T09:35:51.387Z,4.63
2023-05-20T09:38:20.260Z,4.60
2023-05-20T09:40:48.993Z,4.50
2023-05-20T09:43:16.008Z,3.87
2023-05-20T09:45:43.133Z,4.20
2023-05-20T09:48:11.826Z,4.63
2023-05-20T09:50:39.331Z,2.90
2023-05-20T09:53:08.870Z,4.37
2023-05-20T09:55:36.648Z,3.63
2023-05-20T09:58:03.839Z,4.57
2023-05-20T10:00:31.541Z,4.80
2023-05-20T10:02:59.842Z,4.50
2023-05-20T10:05:38.567Z,5.03
2023-05-20T10:08:31.574Z,4.83
2023-05-20T10:11:44.454Z,6.23
2023-05-20T10:14:19.939Z,4.57
2023-05-20T10:17:10.088Z,4.37
2023-05-20T10:19:37.474Z,4.63
2023-05-20T10:22:08.435Z,5.40
2023-05-20T10:24:42.866Z,5.13
2023-05-20T10:27:14.424Z,3.50
2023-05-20T10:29:50.120Z,5.40
2023-05-20T10:32:33.195Z,4.63
2023-05-20T10:35:04.907Z,5.63
2023-05-20T10:37:44.105Z,5.20
2023-05-20T10:40:16.442Z,4.90
2023-05-20T10:42:43.736Z,3.20
2023-05-20T10:45:12.012Z,5.17
2023-05-20T10:47:55.884Z,3.47
2023-05-20T10:50:38.260Z,3.20
2023-05-20T10:53:09.376Z,3.83
2023-05-20T10:55:41.564Z,5.03
2023-05-20T10:58:10.121Z,6.80
2023-05-20T11:00:37.955Z,5.70
2023-05-20T11:03:06.580Z,4.60
2023-05-20T11:05:33.995Z,5.10
2023-05-20T11:08:16.876Z,5.03
2023-05-20T11:10:51.458Z,4.73
2023-05-20T11:13:18.487Z,4.50
2023-05-20T11:15:45.580Z,5.27
2023-05-20T11:18:15.492Z,5.50
2023-05-20T11:20:45.122Z,4.60
2023-05-20T11:23:14.725Z,22.47
2023-05-20T11:25:41.940Z,4.50
2023-05-20T11:28:14.346Z,5.23
2023-05-20T11:30:43.470Z,6.30
2023-05-20T11:33:13.956Z,5.67
2023-05-20T11:35:50.213Z,5.97
2023-05-20T11:38:18.478Z,4.97
2023-05-20T11:40:50.867Z,5.43
2023-05-20T11:43:19.248Z,5.97
2023-05-20T11:45:48.740Z,5.67
2023-05-20T11:48:15.879Z,7.20
2023-05-20T11:50:45.434Z,5.37
2023-05-20T11:53:20.809Z,7.77
2023-05-20T11:55:59.816Z,5.10
2023-05-20T11:58:32.087Z,4.80
2023-05-20T12:01:09.643Z,6.10
2023-05-20T12:03:46.456Z,5.77
2023-05-20T12:06:13.682Z,3.30
2023-05-20T12:08:40.801Z,5.83
2023-05-20T12:11:07.836Z,5.00
2023-05-20T12:13:35.599Z,5.70
2023-05-20T12:16:02.847Z,5.23
2023-05-20T12:18:29.823Z,4.83
2023-05-20T12:20:56.788Z,5.43
2023-05-20T12:23:23.711Z,4.70
2023-05-20T12:25:50.879Z,4.60
2023-05-20T12:28:18.217Z,4.23
2023-05-20T12:30:45.120Z,3.17
2023-05-20T12:33:12.608Z,5.87
2023-05-20T12:35:43.840Z,5.03
2023-05-20T12:38:11.187Z,5.30
2023-05-20T12:40:38.779Z,4.27
2023-05-20T12:43:06.480Z,4.27
2023-05-20T12:45:33.622Z,3.60
2023-05-20T12:48:00.846Z,6.20
2023-05-20T12:50:28.172Z,5.50
2023-05-20T12:52:55.423Z,3.10
2023-05-20T12:55:22.661Z,5.80
2023-05-20T12:57:50.826Z,5.10
2023-05-20T13:00:18.328Z,5.20
2023-05-20T13:02:45.487Z,6.07
2023-05-20T13:05:13.313Z,5.60
2023-05-20T13:07:40.265Z,3.33
2023-05-20T13:10:08.046Z,5.73
2023-05-20T13:12:35.377Z,3.70
2023-05-20T13:15:02.729Z,6.10
2023-05-20T13:17:29.809Z,8.83
2023-05-20T13:19:56.922Z,6.47
2023-05-20T13:22:23.847Z,3.37
2023-05-20T13:24:51.097Z,4.97
2023-05-20T13:27:17.981Z,1.53
2023-05-20T13:29:44.924Z,5.73
2023-05-20T13:32:11.969Z,5.23
2023-05-20T13:34:38.974Z,1.67
2023-05-20T13:37:06.578Z,4.97
2023-05-20T13:39:33.766Z,6.23
2023-05-20T13:42:00.875Z,3.57
2023-05-20T13:44:27.808Z,6.97
2023-05-20T13:46:54.873Z,5.20
2023-05-20T13:49:22.007Z,4.67
2023-05-20T13:51:49.041Z,6.57
2023-05-20T13:54:16.207Z,5.50
2023-05-20T13:56:43.236Z,2.30
2023-05-20T13:59:10.119Z,4.97
2023-05-20T14:01:39.679Z,6.37
2023-05-20T14:04:08.135Z,5.37
2023-05-20T14:06:35.109Z,5.80
2023-05-20T14:09:02.991Z,5.30
2023-05-20T14:11:29.998Z,6.23
2023-05-20T14:13:56.869Z,6.10
2023-05-20T14:16:23.969Z,4.80
2023-05-20T14:18:51.022Z,5.63
2023-05-20T14:21:19.117Z,5.83
2023-05-20T14:23:46.834Z,6.33
2023-05-20T14:26:13.769Z,3.30
2023-05-20T14:28:40.924Z,5.60
2023-05-20T14:31:09.698Z,4.37
2023-05-20T14:33:36.853Z,4.97
2023-05-20T14:36:04.551Z,5.27
2023-05-20T14:38:31.429Z,6.33
2023-05-20T14:40:58.375Z,5.40
2023-05-20T14:43:25.831Z,5.40
2023-05-20T14:45:53.141Z,5.37
2023-05-20T14:48:20.196Z,6.27
2023-05-20T14:50:49.509Z,6.00
2023-05-20T14:53:17.250Z,7.30
2023-05-20T14:55:44.172Z,5.43
2023-05-20T14:58:11.415Z,4.10
2023-05-20T15:00:38.971Z,7.73
2023-05-20T15:03:06.316Z,8.03
2023-05-20T15:05:33.546Z,6.83
2023-05-20T15:08:00.728Z,6.03
2023-05-20T15:10:27.739Z,7.07
2023-05-20T15:12:54.969Z,6.80
2023-05-20T15:15:22.394Z,6.63
2023-05-20T15:17:49.387Z,7.43
2023-05-20T15:20:16.462Z,5.77
2023-05-20T15:22:47.735Z,5.47
2023-05-20T15:25:14.972Z,9.07
2023-05-20T15:27:42.801Z,7.53
2023-05-20T15:30:10.845Z,8.40
2023-05-20T15:32:38.119Z,7.37
2023-05-20T15:35:06.407Z,7.50
2023-05-20T15:37:33.387Z,8.67
2023-05-20T15:40:00.312Z,8.33
2023-05-20T15:42:27.239Z,7.87
2023-05-20T15:44:54.199Z,7.47
2023-05-20T15:47:21.415Z,8.30
2023-05-20T15:49:48.476Z,7.47
2023-05-20T15:52:15.524Z,6.90
2023-05-20T15:54:42.477Z,7.07
2023-05-20T15:57:10.036Z,8.60
2023-05-20T15:59:36.903Z,8.57
2023-05-20T16:02:03.916Z,7.83
2023-05-20T16:04:30.930Z,7.90
2023-05-20T16:06:57.965Z,8.87
2023-05-20T16:09:24.836Z,8.00
2023-05-20T16:11:51.743Z,8.80
2023-05-20T16:14:18.609Z,7.50
2023-05-20T16:16:45.638Z,11.07
2023-05-20T16:19:12.693Z,9.37
2023-05-20T16:21:39.736Z,11.10
2023-05-20T16:24:06.738Z,8.40
2023-05-20T16:26:33.720Z,9.60
2023-05-20T16:29:00.696Z,8.00
2023-05-20T16:31:27.544Z,8.00
2023-05-20T16:33:54.910Z,8.43
2023-05-20T16:36:22.038Z,5.80
2023-05-20T16:38:48.955Z,8.23
2023-05-20T16:41:16.427Z,7.27
2023-05-20T16:43:43.562Z,10.00
2023-05-20T16:46:12.414Z,10.93
2023-05-20T16:48:39.575Z,11.00
2023-05-20T16:51:06.741Z,8.60
2023-05-20T16:53:33.877Z,8.43
2023-05-20T16:56:00.801Z,8.83
2023-05-20T16:58:27.708Z,8.50
2023-05-20T17:00:55.200Z,9.10
2023-05-20T17:03:22.353Z,7.50
2023-05-20T17:05:49.220Z,10.20
2023-05-20T17:08:16.433Z,6.50
2023-05-20T17:10:43.372Z,10.23
2023-05-20T17:13:10.418Z,9.43
2023-05-20T17:15:37.446Z,3.70
2023-05-20T17:18:04.624Z,9.00
2023-05-20T17:20:32.502Z,7.97
2023-05-20T17:22:59.639Z,9.23
2023-05-20T17:25:26.532Z,8.23
2023-05-20T17:27:53.446Z,10.40
2023-05-20T17:30:20.581Z,10.37
2023-05-20T17:32:47.640Z,8.70
2023-05-20T17:35:14.615Z,10.00
2023-05-20T17:37:41.703Z,10.10
2023-05-20T17:40:09.348Z,8.90
2023-05-20T17:42:36.534Z,6.80
2023-05-20T17:45:03.732Z,3.20
2023-05-20T17:47:30.675Z,8.37
2023-05-20T17:49:59.845Z,8.53
2023-05-20T17:52:27.084Z,10.90
2023-05-20T17:54:53.924Z,8.30
2023-05-20T17:57:20.994Z,9.90
2023-05-20T17:59:47.934Z,8.43
2023-05-20T18:02:14.895Z,9.43
2023-05-20T18:04:41.888Z,9.37
2023-05-20T18:07:08.801Z,7.40
2023-05-20T18:09:36.065Z,8.50
2023-05-20T18:12:02.908Z,9.50
2023-05-20T18:14:29.787Z,7.93
2023-05-20T18:16:57.508Z,5.97
2023-05-20T18:19:25.140Z,12.00
2023-05-20T18:21:52.219Z,7.27
2023-05-20T18:24:20.386Z,9.60
2023-05-20T18:26:47.601Z,8.83
2023-05-20T18:29:14.511Z,9.23
2023-05-20T18:31:43.290Z,10.20
2023-05-20T18:34:10.630Z,8.50
2023-05-20T18:36:37.778Z,10.80
2023-05-20T18:39:04.802Z,9.80
2023-05-20T18:41:39.431Z,6.77
2023-05-20T18:44:15.092Z,10.40
2023-05-20T18:46:42.463Z,9.63
2023-05-20T18:49:10.636Z,6.50
2023-05-20T18:51:39.004Z,9.20
2023-05-20T18:54:06.150Z,10.30
2023-05-20T18:56:33.428Z,11.03
2023-05-20T18:59:00.622Z,11.43
2023-05-20T19:01:28.708Z,11.07
2023-05-20T19:03:55.816Z,9.80
2023-05-20T19:06:22.856Z,11.30
2023-05-20T19:08:49.891Z,9.63
2023-05-20T19:11:17.173Z,10.90
2023-05-20T19:13:44.264Z,10.63
2023-05-20T19:16:11.670Z,10.93
2023-05-20T19:18:38.715Z,9.97
2023-05-20T19:21:05.826Z,12.37
2023-05-20T19:23:32.699Z,9.87
2023-05-20T19:25:59.692Z,11.20
2023-05-20T19:28:26.756Z,12.03
2023-05-20T19:30:53.883Z,9.80
2023-05-20T19:33:21.302Z,12.03
2023-05-20T19:35:48.370Z,11.50
2023-05-20T19:38:15.474Z,10.53
2023-05-20T19:40:44.443Z,12.50
2023-05-20T19:43:11.464Z,12.27
2023-05-20T19:45:38.469Z,12.13
2023-05-20T19:48:06.426Z,9.73
2023-05-20T19:50:34.216Z,12.63
2023-05-20T19:53:06.067Z,16.93
2023-05-20T19:55:35.213Z,11.37
2023-05-20T19:58:02.490Z,11.40
2023-05-20T20:00:29.566Z,12.37
2023-05-20T20:02:57.033Z,15.80
2023-05-20T20:05:25.727Z,12.00
2023-05-20T20:07:52.784Z,10.77
2023-05-20T20:10:19.974Z,15.37
2023-05-20T20:12:46.925Z,12.07
2023-05-20T20:15:14.288Z,12.70
2023-05-20T20:17:45.476Z,13.67
2023-05-20T20:20:15.385Z,13.37
2023-05-20T20:22:42.480Z,12.40
2023-05-20T20:25:09.598Z,16.70
2023-05-20T20:27:36.452Z,11.27
2023-05-20T20:30:03.677Z,12.77
2023-05-20T20:32:30.630Z,13.20
2023-05-20T20:34:58.106Z,13.50
2023-05-20T20:37:26.800Z,17.73
2023-05-20T20:39:54.566Z,13.57
2023-05-20T20:42:24.690Z,14.47
2023-05-20T20:44:52.494Z,13.60
2023-05-20T20:47:19.612Z,13.60
2023-05-20T20:49:46.541Z,14.17
2023-05-20T20:52:13.566Z,13.13
2023-05-20T20:54:42.870Z,17.40
2023-05-20T20:57:11.388Z,14.33
2023-05-20T20:59:38.438Z,15.53
2023-05-20T21:02:06.554Z,10.17
2023-05-20T21:04:33.667Z,13.87
2023-05-20T21:07:02.344Z,18.40
2023-05-20T21:09:29.378Z,14.10
2023-05-20T21:11:57.265Z,13.73
2023-05-20T21:14:25.343Z,10.43
2023-05-20T21:16:52.684Z,20.30
2023-05-20T21:19:19.760Z,16.63
2023-05-20T21:21:46.704Z,16.57
2023-05-20T21:24:13.588Z,16.13
2023-05-20T21:26:40.609Z,15.00
2023-05-20T21:29:09.881Z,12.53
2023-05-20T21:31:36.865Z,14.77
2023-05-20T21:34:04.209Z,16.70
2023-05-20T21:36:32.320Z,14.90
2023-05-20T21:38:59.251Z,13.97
2023-05-20T21:41:27.149Z,12.00
2023-05-20T21:43:55.228Z,14.70
2023-05-20T21:46:22.330Z,16.67
2023-05-20T21:48:49.281Z,16.33
2023-05-20T21:51:16.397Z,17.30
2023-05-20T21:53:43.324Z,18.87
2023-05-20T21:56:10.541Z,17.17
2023-05-20T21:58:41.183Z,17.07
2023-05-20T22:01:09.748Z,14.30
2023-05-20T22:03:38.237Z,15.47
2023-05-20T22:06:06.186Z,15.77
2023-05-20T22:08:35.711Z,15.97
2023-05-20T22:11:07.100Z,13.20
2023-05-20T22:13:41.228Z,17.30
2023-05-20T22:16:08.872Z,13.00
2023-05-20T22:18:35.962Z,13.27
2023-05-20T22:21:04.003Z,15.03
2023-05-20T22:23:31.053Z,15.17
2023-05-20T22:25:58.285Z,15.80
2023-05-20T22:28:26.325Z,15.50
2023-05-20T22:30:53.307Z,12.53
2023-05-20T22:33:22.857Z,12.83
2023-05-20T22:35:51.246Z,15.10
2023-05-20T22:38:18.214Z,21.43
2023-05-20T22:40:45.431Z,16.10
2023-05-20T22:43:16.471Z,18.57
2023-05-20T22:45:43.531Z,14.33
2023-05-20T22:48:10.571Z,14.80
2023-05-20T22:50:37.628Z,15.80
2023-05-20T22:53:04.575Z,14.20
2023-05-20T22:55:31.462Z,14.07
2023-05-20T22:58:00.329Z,10.40
2023-05-20T23:00:27.743Z,14.40
2023-05-20T23:02:56.508Z,14.07
2023-05-20T23:05:23.673Z,13.77
2023-05-20T23:07:52.907Z,7.07
2023-05-20T23:10:20.559Z,14.27
2023-05-20T23:12:47.597Z,15.70
2023-05-20T23:15:14.483Z,14.40
2023-05-20T23:17:41.631Z,17.57
2023-05-20T23:20:14.189Z,13.93
2023-05-20T23:22:41.479Z,12.93
2023-05-20T23:25:09.124Z,14.23
2023-05-20T23:27:36.163Z,14.00
2023-05-20T23:30:03.326Z,19.60
2023-05-20T23:32:30.558Z,14.13
2023-05-20T23:34:57.553Z,14.33
2023-05-20T23:37:24.514Z,17.50
2023-05-20T23:39:51.470Z,14.93
2023-05-20T23:42:18.377Z,16.17
2023-05-20T23:44:45.417Z,11.27
2023-05-20T23:47:13.666Z,11.87
2023-05-20T23:49:41.551Z,15.30
2023-05-20T23:52:08.555Z,13.60
2023-05-20T23:54:35.503Z,15.20
2023-05-20T23:57:02.536Z,13.67
2023-05-20T23:59:29.403Z,13.90
